sensor_id;sensor_type;location;lat;lon;timestamp;P1;durP1;ratioP1;P2;durP2;ratioP2
84025;SDS011;74110;45.660;25.582;2024-03-06T00:02:12;24.20;;;9.90;;
84025;SDS011;74110;45.660;25.582;2024-03-06T00:04:42;20.40;;;9.40;;
84025;SDS011;74110;45.660;25.582;2024-03-06T00:07:11;24.80;;;9.60;;
84025;SDS011;74110;45.660;25.582;2024-03-06T00:09:39;20.00;;;9.70;;
84025;SDS011;74110;45.660;25.582;2024-03-06T00:12:10;23.50;;;10.20;;
84025;SDS011;74110;45.660;25.582;2024-03-06T00:14:38;22.30;;;9.40;;
84025;SDS011;74110;45.660;25.582;2024-03-06T00:17:09;26.10;;;10.70;;
84025;SDS011;74110;45.660;25.582;2024-03-06T00:19:37;23.80;;;10.80;;
84025;SDS011;74110;45.660;25.582;2024-03-06T00:22:09;23.00;;;9.50;;
84025;SDS011;74110;45.660;25.582;2024-03-06T00:24:41;21.30;;;9.40;;
84025;SDS011;74110;45.660;25.582;2024-03-06T00:27:10;27.20;;;9.60;;
84025;SDS011;74110;45.660;25.582;2024-03-06T00:29:40;21.20;;;9.60;;
84025;SDS011;74110;45.660;25.582;2024-03-06T00:32:09;25.10;;;10.60;;
84025;SDS011;74110;45.660;25.582;2024-03-06T00:34:40;31.50;;;12.60;;
84025;SDS011;74110;45.660;25.582;2024-03-06T00:37:09;27.50;;;12.00;;
84025;SDS011;74110;45.660;25.582;2024-03-06T00:39:42;26.90;;;12.60;;
84025;SDS011;74110;45.660;25.582;2024-03-06T00:42:13;25.60;;;11.70;;
84025;SDS011;74110;45.660;25.582;2024-03-06T00:44:43;23.20;;;11.40;;
84025;SDS011;74110;45.660;25.582;2024-03-06T00:47:15;22.90;;;9.90;;
84025;SDS011;74110;45.660;25.582;2024-03-06T00:49:44;24.40;;;10.60;;
84025;SDS011;74110;45.660;25.582;2024-03-06T00:52:15;18.20;;;8.50;;
84025;SDS011;74110;45.660;25.582;2024-03-06T00:54:44;33.00;;;13.70;;
84025;SDS011;74110;45.660;25.582;2024-03-06T00:57:14;29.90;;;14.40;;
84025;SDS011;74110;45.660;25.582;2024-03-06T00:59:43;37.10;;;12.60;;
84025;SDS011;74110;45.660;25.582;2024-03-06T01:02:14;30.40;;;11.90;;
84025;SDS011;74110;45.660;25.582;2024-03-06T01:04:44;29.00;;;13.20;;
84025;SDS011;74110;45.660;25.582;2024-03-06T01:07:12;33.10;;;12.70;;
84025;SDS011;74110;45.660;25.582;2024-03-06T01:09:44;33.00;;;13.30;;
84025;SDS011;74110;45.660;25.582;2024-03-06T01:12:14;31.90;;;13.30;;
84025;SDS011;74110;45.660;25.582;2024-03-06T01:14:43;19.50;;;7.30;;
84025;SDS011;74110;45.660;25.582;2024-03-06T01:17:13;31.60;;;13.60;;
84025;SDS011;74110;45.660;25.582;2024-03-06T01:19:42;26.50;;;10.30;;
84025;SDS011;74110;45.660;25.582;2024-03-06T01:22:15;32.40;;;13.60;;
84025;SDS011;74110;45.660;25.582;2024-03-06T01:24:44;22.60;;;9.20;;
84025;SDS011;74110;45.660;25.582;2024-03-06T01:27:16;25.90;;;10.80;;
84025;SDS011;74110;45.660;25.582;2024-03-06T01:29:47;32.90;;;12.10;;
84025;SDS011;74110;45.660;25.582;2024-03-06T01:32:15;32.30;;;13.60;;
84025;SDS011;74110;45.660;25.582;2024-03-06T01:34:45;29.70;;;11.70;;
84025;SDS011;74110;45.660;25.582;2024-03-06T01:37:14;34.30;;;13.30;;
84025;SDS011;74110;45.660;25.582;2024-03-06T01:39:44;33.60;;;14.60;;
84025;SDS011;74110;45.660;25.582;2024-03-06T01:42:16;38.30;;;14.50;;
84025;SDS011;74110;45.660;25.582;2024-03-06T01:44:45;29.80;;;13.70;;
84025;SDS011;74110;45.660;25.582;2024-03-06T01:47:16;31.50;;;13.10;;
84025;SDS011;74110;45.660;25.582;2024-03-06T01:49:46;32.20;;;13.00;;
84025;SDS011;74110;45.660;25.582;2024-03-06T01:52:15;26.30;;;12.30;;
84025;SDS011;74110;45.660;25.582;2024-03-06T01:57:19;24.00;;;10.60;;
84025;SDS011;74110;45.660;25.582;2024-03-06T01:59:52;33.10;;;12.90;;
84025;SDS011;74110;45.660;25.582;2024-03-06T02:02:23;25.00;;;11.70;;
84025;SDS011;74110;45.660;25.582;2024-03-06T02:04:56;32.70;;;14.60;;
84025;SDS011;74110;45.660;25.582;2024-03-06T02:07:28;24.80;;;11.30;;
84025;SDS011;74110;45.660;25.582;2024-03-06T02:10:01;33.30;;;13.90;;
84025;SDS011;74110;45.660;25.582;2024-03-06T02:12:30;35.80;;;13.80;;
84025;SDS011;74110;45.660;25.582;2024-03-06T02:14:59;34.90;;;13.80;;
84025;SDS011;74110;45.660;25.582;2024-03-06T02:17:28;29.90;;;13.60;;
84025;SDS011;74110;45.660;25.582;2024-03-06T02:19:57;27.60;;;12.60;;
84025;SDS011;74110;45.660;25.582;2024-03-06T02:22:27;29.00;;;12.50;;
84025;SDS011;74110;45.660;25.582;2024-03-06T02:24:55;25.60;;;11.50;;
84025;SDS011;74110;45.660;25.582;2024-03-06T02:27:23;29.60;;;11.70;;
84025;SDS011;74110;45.660;25.582;2024-03-06T02:29:52;28.00;;;11.90;;
84025;SDS011;74110;45.660;25.582;2024-03-06T02:32:21;30.30;;;12.90;;
84025;SDS011;74110;45.660;25.582;2024-03-06T02:34:51;25.90;;;11.80;;
84025;SDS011;74110;45.660;25.582;2024-03-06T02:39:50;23.50;;;9.80;;
84025;SDS011;74110;45.660;25.582;2024-03-06T02:42:18;24.20;;;10.50;;
84025;SDS011;74110;45.660;25.582;2024-03-06T02:44:47;22.60;;;11.00;;
84025;SDS011;74110;45.660;25.582;2024-03-06T02:47:17;25.20;;;10.90;;
84025;SDS011;74110;45.660;25.582;2024-03-06T02:49:46;25.60;;;10.40;;
84025;SDS011;74110;45.660;25.582;2024-03-06T02:52:15;31.00;;;12.30;;
84025;SDS011;74110;45.660;25.582;2024-03-06T02:54:43;32.20;;;13.00;;
84025;SDS011;74110;45.660;25.582;2024-03-06T02:57:13;29.70;;;11.50;;
84025;SDS011;74110;45.660;25.582;2024-03-06T02:59:43;25.60;;;11.10;;
84025;SDS011;74110;45.660;25.582;2024-03-06T03:02:13;27.60;;;11.50;;
84025;SDS011;74110;45.660;25.582;2024-03-06T03:04:41;25.80;;;11.10;;
84025;SDS011;74110;45.660;25.582;2024-03-06T03:07:12;29.50;;;10.50;;
84025;SDS011;74110;45.660;25.582;2024-03-06T03:09:41;24.90;;;12.10;;
84025;SDS011;74110;45.660;25.582;2024-03-06T03:12:10;23.00;;;11.00;;
84025;SDS011;74110;45.660;25.582;2024-03-06T03:14:40;27.80;;;10.40;;
84025;SDS011;74110;45.660;25.582;2024-03-06T03:17:09;19.80;;;9.10;;
84025;SDS011;74110;45.660;25.582;2024-03-06T03:19:39;16.30;;;6.90;;
84025;SDS011;74110;45.660;25.582;2024-03-06T03:22:08;25.40;;;9.80;;
84025;SDS011;74110;45.660;25.582;2024-03-06T03:24:41;16.80;;;6.80;;
84025;SDS011;74110;45.660;25.582;2024-03-06T03:27:12;19.00;;;8.70;;
84025;SDS011;74110;45.660;25.582;2024-03-06T03:29:41;23.50;;;10.20;;
84025;SDS011;74110;45.660;25.582;2024-03-06T03:32:11;20.50;;;8.20;;
84025;SDS011;74110;45.660;25.582;2024-03-06T03:34:39;19.90;;;9.30;;
84025;SDS011;74110;45.660;25.582;2024-03-06T03:37:08;24.50;;;9.50;;
84025;SDS011;74110;45.660;25.582;2024-03-06T03:39:38;16.20;;;7.10;;
84025;SDS011;74110;45.660;25.582;2024-03-06T03:42:07;18.80;;;7.40;;
84025;SDS011;74110;45.660;25.582;2024-03-06T03:44:38;18.20;;;7.60;;
84025;SDS011;74110;45.660;25.582;2024-03-06T03:47:07;22.50;;;10.00;;
84025;SDS011;74110;45.660;25.582;2024-03-06T03:49:37;23.30;;;10.20;;
84025;SDS011;74110;45.660;25.582;2024-03-06T03:52:07;18.90;;;9.50;;
84025;SDS011;74110;45.660;25.582;2024-03-06T03:54:37;24.30;;;10.50;;
84025;SDS011;74110;45.660;25.582;2024-03-06T03:57:08;21.50;;;9.70;;
84025;SDS011;74110;45.660;25.582;2024-03-06T03:59:37;26.10;;;10.20;;
84025;SDS011;74110;45.660;25.582;2024-03-06T04:02:07;19.70;;;9.60;;
84025;SDS011;74110;45.660;25.582;2024-03-06T04:04:36;21.60;;;9.20;;
84025;SDS011;74110;45.660;25.582;2024-03-06T04:07:05;18.40;;;8.10;;
84025;SDS011;74110;45.660;25.582;2024-03-06T04:09:40;20.70;;;8.70;;
84025;SDS011;74110;45.660;25.582;2024-03-06T04:12:10;20.30;;;10.10;;
84025;SDS011;74110;45.660;25.582;2024-03-06T04:14:40;19.20;;;8.80;;
84025;SDS011;74110;45.660;25.582;2024-03-06T04:17:08;21.90;;;9.60;;
84025;SDS011;74110;45.660;25.582;2024-03-06T04:19:37;22.10;;;9.40;;
84025;SDS011;74110;45.660;25.582;2024-03-06T04:22:06;23.60;;;10.60;;
84025;SDS011;74110;45.660;25.582;2024-03-06T04:24:35;18.70;;;8.90;;
84025;SDS011;74110;45.660;25.582;2024-03-06T04:27:04;22.00;;;8.40;;
84025;SDS011;74110;45.660;25.582;2024-03-06T04:29:34;21.20;;;9.40;;
84025;SDS011;74110;45.660;25.582;2024-03-06T04:32:04;22.90;;;9.00;;
84025;SDS011;74110;45.660;25.582;2024-03-06T04:34:34;20.30;;;8.40;;
84025;SDS011;74110;45.660;25.582;2024-03-06T04:37:02;21.60;;;10.20;;
84025;SDS011;74110;45.660;25.582;2024-03-06T04:39:31;29.10;;;10.80;;
84025;SDS011;74110;45.660;25.582;2024-03-06T04:42:01;25.40;;;11.50;;
84025;SDS011;74110;45.660;25.582;2024-03-06T04:44:33;26.30;;;10.20;;
84025;SDS011;74110;45.660;25.582;2024-03-06T04:47:02;22.20;;;9.70;;
84025;SDS011;74110;45.660;25.582;2024-03-06T04:49:33;20.50;;;10.00;;
84025;SDS011;74110;45.660;25.582;2024-03-06T04:52:03;25.00;;;9.30;;
84025;SDS011;74110;45.660;25.582;2024-03-06T04:54:33;24.20;;;9.50;;
84025;SDS011;74110;45.660;25.582;2024-03-06T04:57:03;21.80;;;9.20;;
84025;SDS011;74110;45.660;25.582;2024-03-06T04:59:32;21.20;;;9.80;;
84025;SDS011;74110;45.660;25.582;2024-03-06T05:02:01;24.60;;;10.00;;
84025;SDS011;74110;45.660;25.582;2024-03-06T05:04:33;22.10;;;8.90;;
84025;SDS011;74110;45.660;25.582;2024-03-06T05:07:19;16.30;;;6.80;;
84025;SDS011;74110;45.660;25.582;2024-03-06T05:10:07;36.00;;;13.20;;
84025;SDS011;74110;45.660;25.582;2024-03-06T05:12:55;28.20;;;11.80;;
84025;SDS011;74110;45.660;25.582;2024-03-06T05:15:42;29.90;;;12.40;;
84025;SDS011;74110;45.660;25.582;2024-03-06T05:18:29;30.80;;;13.60;;
84025;SDS011;74110;45.660;25.582;2024-03-06T05:21:18;27.70;;;11.10;;
84025;SDS011;74110;45.660;25.582;2024-03-06T05:26:52;36.30;;;15.70;;
84025;SDS011;74110;45.660;25.582;2024-03-06T05:29:39;31.40;;;14.20;;
84025;SDS011;74110;45.660;25.582;2024-03-06T05:32:26;34.10;;;13.80;;
84025;SDS011;74110;45.660;25.582;2024-03-06T05:35:14;32.40;;;12.90;;
84025;SDS011;74110;45.660;25.582;2024-03-06T05:38:02;25.70;;;11.40;;
84025;SDS011;74110;45.660;25.582;2024-03-06T05:43:35;27.80;;;11.20;;
84025;SDS011;74110;45.660;25.582;2024-03-06T05:46:34;26.80;;;10.20;;
84025;SDS011;74110;45.660;25.582;2024-03-06T05:49:24;28.30;;;10.60;;
84025;SDS011;74110;45.660;25.582;2024-03-06T05:52:10;34.30;;;13.20;;
84025;SDS011;74110;45.660;25.582;2024-03-06T05:54:58;36.00;;;15.50;;
84025;SDS011;74110;45.660;25.582;2024-03-06T05:57:45;29.30;;;11.90;;
84025;SDS011;74110;45.660;25.582;2024-03-06T06:00:32;29.10;;;12.70;;
84025;SDS011;74110;45.660;25.582;2024-03-06T06:03:04;31.50;;;10.70;;
84025;SDS011;74110;45.660;25.582;2024-03-06T06:05:35;23.20;;;9.10;;
84025;SDS011;74110;45.660;25.582;2024-03-06T06:08:05;38.50;;;14.90;;
84025;SDS011;74110;45.660;25.582;2024-03-06T06:10:35;29.80;;;13.90;;
84025;SDS011;74110;45.660;25.582;2024-03-06T06:13:04;32.40;;;14.20;;
84025;SDS011;74110;45.660;25.582;2024-03-06T06:16:05;31.20;;;13.00;;
84025;SDS011;74110;45.660;25.582;2024-03-06T06:18:33;24.60;;;10.80;;
84025;SDS011;74110;45.660;25.582;2024-03-06T06:21:02;26.70;;;10.40;;
84025;SDS011;74110;45.660;25.582;2024-03-06T06:23:43;27.60;;;11.90;;
84025;SDS011;74110;45.660;25.582;2024-03-06T06:26:11;32.60;;;12.00;;
84025;SDS011;74110;45.660;25.582;2024-03-06T06:28:52;35.50;;;13.80;;
84025;SDS011;74110;45.660;25.582;2024-03-06T06:31:23;34.00;;;12.60;;
84025;SDS011;74110;45.660;25.582;2024-03-06T06:33:52;34.40;;;15.00;;
84025;SDS011;74110;45.660;25.582;2024-03-06T06:36:22;32.00;;;14.20;;
84025;SDS011;74110;45.660;25.582;2024-03-06T06:38:52;27.20;;;12.00;;
84025;SDS011;74110;45.660;25.582;2024-03-06T06:41:21;26.30;;;11.10;;
84025;SDS011;74110;45.660;25.582;2024-03-06T06:43:52;30.20;;;14.20;;
84025;SDS011;74110;45.660;25.582;2024-03-06T06:46:22;28.90;;;12.30;;
84025;SDS011;74110;45.660;25.582;2024-03-06T06:48:51;26.30;;;10.80;;
84025;SDS011;74110;45.660;25.582;2024-03-06T06:51:20;23.40;;;10.50;;
84025;SDS011;74110;45.660;25.582;2024-03-06T06:53:51;24.80;;;10.40;;
84025;SDS011;74110;45.660;25.582;2024-03-06T06:56:23;24.10;;;10.90;;
84025;SDS011;74110;45.660;25.582;2024-03-06T06:58:52;20.70;;;9.90;;
84025;SDS011;74110;45.660;25.582;2024-03-06T07:01:22;25.90;;;12.00;;
84025;SDS011;74110;45.660;25.582;2024-03-06T07:03:52;25.10;;;11.00;;
84025;SDS011;74110;45.660;25.582;2024-03-06T07:06:21;25.80;;;10.80;;
84025;SDS011;74110;45.660;25.582;2024-03-06T07:08:50;26.50;;;11.50;;
84025;SDS011;74110;45.660;25.582;2024-03-06T07:11:19;24.10;;;10.10;;
84025;SDS011;74110;45.660;25.582;2024-03-06T07:13:50;23.60;;;11.50;;
84025;SDS011;74110;45.660;25.582;2024-03-06T07:16:19;21.80;;;10.90;;
84025;SDS011;74110;45.660;25.582;2024-03-06T07:18:48;25.20;;;11.30;;
84025;SDS011;74110;45.660;25.582;2024-03-06T07:21:17;25.90;;;11.50;;
84025;SDS011;74110;45.660;25.582;2024-03-06T07:23:47;24.10;;;10.70;;
84025;SDS011;74110;45.660;25.582;2024-03-06T07:26:17;20.80;;;9.80;;
84025;SDS011;74110;45.660;25.582;2024-03-06T07:28:47;21.70;;;10.50;;
84025;SDS011;74110;45.660;25.582;2024-03-06T07:31:18;24.70;;;10.70;;
84025;SDS011;74110;45.660;25.582;2024-03-06T07:33:48;19.70;;;10.30;;
84025;SDS011;74110;45.660;25.582;2024-03-06T07:36:20;21.00;;;10.50;;
84025;SDS011;74110;45.660;25.582;2024-03-06T07:38:50;23.50;;;11.20;;
84025;SDS011;74110;45.660;25.582;2024-03-06T07:41:20;18.70;;;10.20;;
84025;SDS011;74110;45.660;25.582;2024-03-06T07:43:52;31.00;;;12.40;;
84025;SDS011;74110;45.660;25.582;2024-03-06T07:46:20;24.80;;;11.40;;
84025;SDS011;74110;45.660;25.582;2024-03-06T07:49:01;23.90;;;10.80;;
84025;SDS011;74110;45.660;25.582;2024-03-06T07:51:32;21.70;;;10.30;;
84025;SDS011;74110;45.660;25.582;2024-03-06T07:54:03;24.50;;;12.20;;
84025;SDS011;74110;45.660;25.582;2024-03-06T07:56:33;24.60;;;11.50;;
84025;SDS011;74110;45.660;25.582;2024-03-06T07:59:02;25.00;;;10.90;;
84025;SDS011;74110;45.660;25.582;2024-03-06T08:01:34;20.90;;;10.60;;
84025;SDS011;74110;45.660;25.582;2024-03-06T08:04:03;23.80;;;9.60;;
84025;SDS011;74110;45.660;25.582;2024-03-06T08:06:32;17.50;;;9.50;;
84025;SDS011;74110;45.660;25.582;2024-03-06T08:11:36;21.90;;;10.20;;
84025;SDS011;74110;45.660;25.582;2024-03-06T08:14:06;20.20;;;10.30;;
84025;SDS011;74110;45.660;25.582;2024-03-06T08:16:36;21.50;;;11.40;;
84025;SDS011;74110;45.660;25.582;2024-03-06T08:19:16;20.50;;;10.20;;
84025;SDS011;74110;45.660;25.582;2024-03-06T08:21:45;19.30;;;10.10;;
84025;SDS011;74110;45.660;25.582;2024-03-06T08:24:19;21.30;;;10.20;;
84025;SDS011;74110;45.660;25.582;2024-03-06T08:26:47;24.60;;;10.70;;
84025;SDS011;74110;45.660;25.582;2024-03-06T08:29:16;18.60;;;10.10;;
84025;SDS011;74110;45.660;25.582;2024-03-06T08:31:46;18.00;;;9.70;;
84025;SDS011;74110;45.660;25.582;2024-03-06T08:34:18;18.50;;;9.80;;
84025;SDS011;74110;45.660;25.582;2024-03-06T08:36:55;19.70;;;10.40;;
84025;SDS011;74110;45.660;25.582;2024-03-06T08:39:28;17.80;;;10.40;;
84025;SDS011;74110;45.660;25.582;2024-03-06T08:41:57;23.80;;;10.20;;
84025;SDS011;74110;45.660;25.582;2024-03-06T08:44:29;17.90;;;9.70;;
84025;SDS011;74110;45.660;25.582;2024-03-06T08:46:58;18.30;;;9.60;;
84025;SDS011;74110;45.660;25.582;2024-03-06T08:49:26;17.90;;;9.10;;
84025;SDS011;74110;45.660;25.582;2024-03-06T08:51:55;19.40;;;9.70;;
84025;SDS011;74110;45.660;25.582;2024-03-06T08:54:25;18.20;;;9.60;;
84025;SDS011;74110;45.660;25.582;2024-03-06T08:56:55;19.60;;;9.40;;
84025;SDS011;74110;45.660;25.582;2024-03-06T08:59:26;18.40;;;10.00;;
84025;SDS011;74110;45.660;25.582;2024-03-06T09:01:55;17.90;;;10.10;;
84025;SDS011;74110;45.660;25.582;2024-03-06T09:04:24;20.60;;;9.90;;
84025;SDS011;74110;45.660;25.582;2024-03-06T09:06:52;18.40;;;9.90;;
84025;SDS011;74110;45.660;25.582;2024-03-06T09:09:24;17.20;;;9.60;;
84025;SDS011;74110;45.660;25.582;2024-03-06T09:11:53;17.50;;;8.80;;
84025;SDS011;74110;45.660;25.582;2024-03-06T09:14:24;17.30;;;9.00;;
84025;SDS011;74110;45.660;25.582;2024-03-06T09:16:59;16.10;;;8.00;;
84025;SDS011;74110;45.660;25.582;2024-03-06T09:19:30;16.90;;;8.70;;
84025;SDS011;74110;45.660;25.582;2024-03-06T09:22:00;19.40;;;9.90;;
84025;SDS011;74110;45.660;25.582;2024-03-06T09:24:33;18.30;;;10.00;;
84025;SDS011;74110;45.660;25.582;2024-03-06T09:27:08;16.80;;;9.50;;
84025;SDS011;74110;45.660;25.582;2024-03-06T09:29:39;17.60;;;10.00;;
84025;SDS011;74110;45.660;25.582;2024-03-06T09:32:10;18.10;;;9.30;;
84025;SDS011;74110;45.660;25.582;2024-03-06T09:34:48;19.00;;;9.70;;
84025;SDS011;74110;45.660;25.582;2024-03-06T09:37:21;17.80;;;9.10;;
84025;SDS011;74110;45.660;25.582;2024-03-06T09:39:53;21.50;;;9.80;;
84025;SDS011;74110;45.660;25.582;2024-03-06T09:42:24;18.00;;;9.40;;
84025;SDS011;74110;45.660;25.582;2024-03-06T09:44:54;19.20;;;10.20;;
84025;SDS011;74110;45.660;25.582;2024-03-06T09:47:23;18.30;;;9.50;;
84025;SDS011;74110;45.660;25.582;2024-03-06T09:49:56;18.10;;;9.20;;
84025;SDS011;74110;45.660;25.582;2024-03-06T09:52:25;13.20;;;7.70;;
84025;SDS011;74110;45.660;25.582;2024-03-06T09:54:56;17.00;;;9.40;;
84025;SDS011;74110;45.660;25.582;2024-03-06T09:57:39;14.20;;;6.90;;
84025;SDS011;74110;45.660;25.582;2024-03-06T10:00:09;16.00;;;8.00;;
84025;SDS011;74110;45.660;25.582;2024-03-06T10:03:05;15.60;;;6.50;;
84025;SDS011;74110;45.660;25.582;2024-03-06T10:05:35;15.60;;;8.30;;
84025;SDS011;74110;45.660;25.582;2024-03-06T10:08:09;13.60;;;8.20;;
84025;SDS011;74110;45.660;25.582;2024-03-06T10:10:38;15.20;;;8.60;;
84025;SDS011;74110;45.660;25.582;2024-03-06T10:13:08;15.60;;;8.70;;
84025;SDS011;74110;45.660;25.582;2024-03-06T10:15:38;16.90;;;7.80;;
84025;SDS011;74110;45.660;25.582;2024-03-06T10:18:12;13.50;;;7.90;;
84025;SDS011;74110;45.660;25.582;2024-03-06T10:20:42;14.10;;;7.70;;
84025;SDS011;74110;45.660;25.582;2024-03-06T10:23:12;16.20;;;8.00;;
84025;SDS011;74110;45.660;25.582;2024-03-06T10:25:42;14.00;;;8.30;;
84025;SDS011;74110;45.660;25.582;2024-03-06T10:28:12;14.80;;;7.90;;
84025;SDS011;74110;45.660;25.582;2024-03-06T10:30:41;15.70;;;8.30;;
84025;SDS011;74110;45.660;25.582;2024-03-06T10:33:14;19.60;;;8.50;;
84025;SDS011;74110;45.660;25.582;2024-03-06T10:35:50;15.50;;;7.80;;
84025;SDS011;74110;45.660;25.582;2024-03-06T10:38:22;11.30;;;7.50;;
84025;SDS011;74110;45.660;25.582;2024-03-06T10:40:54;12.30;;;6.70;;
84025;SDS011;74110;45.660;25.582;2024-03-06T10:43:27;18.00;;;8.00;;
84025;SDS011;74110;45.660;25.582;2024-03-06T10:46:00;12.10;;;7.80;;
84025;SDS011;74110;45.660;25.582;2024-03-06T10:48:34;15.00;;;7.60;;
84025;SDS011;74110;45.660;25.582;2024-03-06T10:51:03;16.50;;;8.40;;
84025;SDS011;74110;45.660;25.582;2024-03-06T10:53:36;12.60;;;8.20;;
84025;SDS011;74110;45.660;25.582;2024-03-06T10:56:17;12.10;;;7.50;;
84025;SDS011;74110;45.660;25.582;2024-03-06T10:58:51;14.20;;;7.10;;
84025;SDS011;74110;45.660;25.582;2024-03-06T11:01:24;16.90;;;7.90;;
84025;SDS011;74110;45.660;25.582;2024-03-06T11:04:01;15.60;;;8.90;;
84025;SDS011;74110;45.660;25.582;2024-03-06T11:06:32;14.00;;;7.70;;
84025;SDS011;74110;45.660;25.582;2024-03-06T11:09:03;14.20;;;6.70;;
84025;SDS011;74110;45.660;25.582;2024-03-06T11:11:46;13.50;;;8.10;;
84025;SDS011;74110;45.660;25.582;2024-03-06T11:14:24;13.60;;;7.10;;
84025;SDS011;74110;45.660;25.582;2024-03-06T11:17:00;16.80;;;8.20;;
84025;SDS011;74110;45.660;25.582;2024-03-06T11:28:38;13.20;;;7.20;;
84025;SDS011;74110;45.660;25.582;2024-03-06T11:31:10;13.50;;;6.80;;
84025;SDS011;74110;45.660;25.582;2024-03-06T11:33:53;12.90;;;7.20;;
84025;SDS011;74110;45.660;25.582;2024-03-06T11:36:35;12.60;;;6.70;;
84025;SDS011;74110;45.660;25.582;2024-03-06T11:39:05;12.80;;;6.80;;
84025;SDS011;74110;45.660;25.582;2024-03-06T11:41:47;14.40;;;6.60;;
84025;SDS011;74110;45.660;25.582;2024-03-06T11:44:19;13.60;;;7.70;;
84025;SDS011;74110;45.660;25.582;2024-03-06T11:46:59;12.70;;;7.30;;
84025;SDS011;74110;45.660;25.582;2024-03-06T11:49:32;14.80;;;7.60;;
84025;SDS011;74110;45.660;25.582;2024-03-06T11:52:07;12.20;;;6.70;;
84025;SDS011;74110;45.660;25.582;2024-03-06T11:54:42;11.50;;;6.30;;
84025;SDS011;74110;45.660;25.582;2024-03-06T11:57:11;15.90;;;6.30;;
84025;SDS011;74110;45.660;25.582;2024-03-06T11:59:44;11.00;;;6.40;;
84025;SDS011;74110;45.660;25.582;2024-03-06T12:02:15;13.10;;;6.00;;
84025;SDS011;74110;45.660;25.582;2024-03-06T12:04:44;9.90;;;5.80;;
84025;SDS011;74110;45.660;25.582;2024-03-06T12:07:13;17.80;;;6.40;;
84025;SDS011;74110;45.660;25.582;2024-03-06T12:09:43;11.60;;;5.80;;
84025;SDS011;74110;45.660;25.582;2024-03-06T12:12:16;13.90;;;6.10;;
84025;SDS011;74110;45.660;25.582;2024-03-06T12:14:55;9.00;;;5.40;;
84025;SDS011;74110;45.660;25.582;2024-03-06T12:17:42;9.90;;;5.30;;
84025;SDS011;74110;45.660;25.582;2024-03-06T12:20:23;10.70;;;5.10;;
84025;SDS011;74110;45.660;25.582;2024-03-06T12:22:57;10.10;;;5.30;;
84025;SDS011;74110;45.660;25.582;2024-03-06T12:25:26;9.00;;;5.30;;
84025;SDS011;74110;45.660;25.582;2024-03-06T12:28:05;12.70;;;5.80;;
84025;SDS011;74110;45.660;25.582;2024-03-06T12:30:42;13.50;;;5.00;;
84025;SDS011;74110;45.660;25.582;2024-03-06T12:33:16;13.30;;;5.60;;
84025;SDS011;74110;45.660;25.582;2024-03-06T12:35:46;8.20;;;5.20;;
84025;SDS011;74110;45.660;25.582;2024-03-06T12:38:16;10.10;;;5.10;;
84025;SDS011;74110;45.660;25.582;2024-03-06T12:40:56;12.50;;;4.90;;
84025;SDS011;74110;45.660;25.582;2024-03-06T12:43:27;7.90;;;4.30;;
84025;SDS011;74110;45.660;25.582;2024-03-06T12:45:57;8.00;;;4.90;;
84025;SDS011;74110;45.660;25.582;2024-03-06T12:48:30;10.10;;;4.70;;
84025;SDS011;74110;45.660;25.582;2024-03-06T12:51:03;8.40;;;4.90;;
84025;SDS011;74110;45.660;25.582;2024-03-06T12:53:35;11.30;;;4.30;;
84025;SDS011;74110;45.660;25.582;2024-03-06T12:56:04;9.10;;;4.60;;
84025;SDS011;74110;45.660;25.582;2024-03-06T12:58:33;9.20;;;5.40;;
84025;SDS011;74110;45.660;25.582;2024-03-06T13:01:04;12.20;;;5.50;;
84025;SDS011;74110;45.660;25.582;2024-03-06T13:03:35;9.60;;;5.10;;
84025;SDS011;74110;45.660;25.582;2024-03-06T13:06:06;10.60;;;4.00;;
84025;SDS011;74110;45.660;25.582;2024-03-06T13:08:36;11.70;;;4.90;;
84025;SDS011;74110;45.660;25.582;2024-03-06T13:11:05;8.90;;;4.70;;
84025;SDS011;74110;45.660;25.582;2024-03-06T13:13:37;8.70;;;4.00;;
84025;SDS011;74110;45.660;25.582;2024-03-06T13:16:10;9.50;;;5.00;;
84025;SDS011;74110;45.660;25.582;2024-03-06T13:18:43;7.20;;;4.50;;
84025;SDS011;74110;45.660;25.582;2024-03-06T13:21:15;10.50;;;4.20;;
84025;SDS011;74110;45.660;25.582;2024-03-06T13:23:44;7.30;;;4.20;;
84025;SDS011;74110;45.660;25.582;2024-03-06T13:26:14;11.30;;;4.20;;
84025;SDS011;74110;45.660;25.582;2024-03-06T13:28:45;9.20;;;4.30;;
84025;SDS011;74110;45.660;25.582;2024-03-06T13:31:15;6.50;;;4.10;;
84025;SDS011;74110;45.660;25.582;2024-03-06T13:33:46;9.10;;;4.40;;
84025;SDS011;74110;45.660;25.582;2024-03-06T13:36:18;5.90;;;3.70;;
84025;SDS011;74110;45.660;25.582;2024-03-06T13:38:49;6.30;;;3.70;;
84025;SDS011;74110;45.660;25.582;2024-03-06T13:41:23;6.70;;;3.80;;
84025;SDS011;74110;45.660;25.582;2024-03-06T13:43:50;7.00;;;4.20;;
84025;SDS011;74110;45.660;25.582;2024-03-06T13:46:19;5.80;;;2.70;;
84025;SDS011;74110;45.660;25.582;2024-03-06T13:48:48;11.30;;;3.90;;
84025;SDS011;74110;45.660;25.582;2024-03-06T13:51:17;8.30;;;3.50;;
84025;SDS011;74110;45.660;25.582;2024-03-06T13:53:47;9.80;;;3.80;;
84025;SDS011;74110;45.660;25.582;2024-03-06T13:56:18;7.60;;;3.60;;
84025;SDS011;74110;45.660;25.582;2024-03-06T13:58:46;10.20;;;4.40;;
84025;SDS011;74110;45.660;25.582;2024-03-06T14:01:14;7.90;;;3.70;;
84025;SDS011;74110;45.660;25.582;2024-03-06T14:03:45;8.70;;;4.30;;
84025;SDS011;74110;45.660;25.582;2024-03-06T14:06:13;7.80;;;3.50;;
84025;SDS011;74110;45.660;25.582;2024-03-06T14:08:42;8.10;;;3.80;;
84025;SDS011;74110;45.660;25.582;2024-03-06T14:11:12;8.00;;;4.20;;
84025;SDS011;74110;45.660;25.582;2024-03-06T14:13:42;6.80;;;3.80;;
84025;SDS011;74110;45.660;25.582;2024-03-06T14:16:12;9.10;;;3.50;;
84025;SDS011;74110;45.660;25.582;2024-03-06T14:18:43;5.50;;;3.40;;
84025;SDS011;74110;45.660;25.582;2024-03-06T14:21:12;7.70;;;4.10;;
84025;SDS011;74110;45.660;25.582;2024-03-06T14:23:41;10.60;;;4.40;;
84025;SDS011;74110;45.660;25.582;2024-03-06T14:26:11;7.70;;;4.40;;
84025;SDS011;74110;45.660;25.582;2024-03-06T14:28:40;9.40;;;4.60;;
84025;SDS011;74110;45.660;25.582;2024-03-06T14:31:08;6.60;;;3.60;;
84025;SDS011;74110;45.660;25.582;2024-03-06T14:33:39;10.10;;;4.30;;
84025;SDS011;74110;45.660;25.582;2024-03-06T14:36:10;12.00;;;5.10;;
84025;SDS011;74110;45.660;25.582;2024-03-06T14:38:39;12.30;;;5.40;;
84025;SDS011;74110;45.660;25.582;2024-03-06T14:41:09;9.50;;;5.60;;
84025;SDS011;74110;45.660;25.582;2024-03-06T14:43:41;9.60;;;5.10;;
84025;SDS011;74110;45.660;25.582;2024-03-06T14:46:11;9.70;;;4.60;;
84025;SDS011;74110;45.660;25.582;2024-03-06T14:48:39;7.90;;;4.80;;
84025;SDS011;74110;45.660;25.582;2024-03-06T14:51:11;8.40;;;4.80;;
84025;SDS011;74110;45.660;25.582;2024-03-06T14:53:40;10.00;;;4.80;;
84025;SDS011;74110;45.660;25.582;2024-03-06T14:56:09;13.20;;;4.70;;
84025;SDS011;74110;45.660;25.582;2024-03-06T14:58:39;7.70;;;3.20;;
84025;SDS011;74110;45.660;25.582;2024-03-06T15:01:08;7.50;;;4.40;;
84025;SDS011;74110;45.660;25.582;2024-03-06T15:03:40;8.50;;;4.60;;
84025;SDS011;74110;45.660;25.582;2024-03-06T15:06:09;6.40;;;3.60;;
84025;SDS011;74110;45.660;25.582;2024-03-06T15:08:40;7.60;;;3.30;;